sensor_id;sensor_type;location;lat;lon;timestamp;P1;durP1;ratioP1;P2;durP2;ratioP2
15132;SDS011;7667;51.232;17.110;2024-02-26T00:00:36;23.27;;;16.30;;
15132;SDS011;7667;51.232;17.110;2024-02-26T00:03:04;20.27;;;16.03;;
15132;SDS011;7667;51.232;17.110;2024-02-26T00:05:32;22.70;;;16.47;;
15132;SDS011;7667;51.232;17.110;2024-02-26T00:07:59;21.40;;;15.23;;
15132;SDS011;7667;51.232;17.110;2024-02-26T00:10:31;23.27;;;17.07;;
15132;SDS011;7667;51.232;17.110;2024-02-26T00:12:59;18.43;;;14.17;;
15132;SDS011;7667;51.232;17.110;2024-02-26T00:15:26;21.37;;;14.27;;
15132;SDS011;7667;51.232;17.110;2024-02-26T00:17:54;22.70;;;16.60;;
15132;SDS011;7667;51.232;17.110;2024-02-26T00:20:22;19.77;;;16.57;;
15132;SDS011;7667;51.232;17.110;2024-02-26T00:22:50;22.27;;;16.37;;
15132;SDS011;7667;51.232;17.110;2024-02-26T00:25:17;22.30;;;15.77;;
15132;SDS011;7667;51.232;17.110;2024-02-26T00:27:45;26.17;;;18.07;;
15132;SDS011;7667;51.232;17.110;2024-02-26T00:30:13;29.20;;;20.30;;
15132;SDS011;7667;51.232;17.110;2024-02-26T00:32:40;29.27;;;20.43;;
15132;SDS011;7667;51.232;17.110;2024-02-26T00:35:08;34.73;;;23.93;;
15132;SDS011;7667;51.232;17.110;2024-02-26T00:37:36;41.30;;;31.70;;
15132;SDS011;7667;51.232;17.110;2024-02-26T00:40:04;39.00;;;30.17;;
15132;SDS011;7667;51.232;17.110;2024-02-26T00:42:33;29.77;;;21.50;;
15132;SDS011;7667;51.232;17.110;2024-02-26T00:45:01;23.80;;;16.37;;
15132;SDS011;7667;51.232;17.110;2024-02-26T00:47:29;27.63;;;20.17;;
15132;SDS011;7667;51.232;17.110;2024-02-26T00:49:56;23.20;;;17.03;;
15132;SDS011;7667;51.232;17.110;2024-02-26T00:52:24;20.73;;;15.63;;
15132;SDS011;7667;51.232;17.110;2024-02-26T00:54:52;23.03;;;16.80;;
15132;SDS011;7667;51.232;17.110;2024-02-26T00:57:19;25.57;;;19.73;;
15132;SDS011;7667;51.232;17.110;2024-02-26T00:59:47;24.90;;;17.80;;
15132;SDS011;7667;51.232;17.110;2024-02-26T01:02:15;23.33;;;17.00;;
15132;SDS011;7667;51.232;17.110;2024-02-26T01:04:43;18.90;;;14.13;;
15132;SDS011;7667;51.232;17.110;2024-02-26T01:07:10;19.53;;;14.20;;
15132;SDS011;7667;51.232;17.110;2024-02-26T01:09:38;16.03;;;11.93;;
15132;SDS011;7667;51.232;17.110;2024-02-26T01:12:06;18.20;;;12.20;;
15132;SDS011;7667;51.232;17.110;2024-02-26T01:14:34;19.53;;;14.53;;
15132;SDS011;7667;51.232;17.110;2024-02-26T01:17:01;18.17;;;11.47;;
15132;SDS011;7667;51.232;17.110;2024-02-26T01:19:29;16.60;;;10.50;;
15132;SDS011;7667;51.232;17.110;2024-02-26T01:21:57;17.43;;;12.33;;
15132;SDS011;7667;51.232;17.110;2024-02-26T01:24:24;19.03;;;13.40;;
15132;SDS011;7667;51.232;17.110;2024-02-26T01:26:52;15.20;;;11.10;;
15132;SDS011;7667;51.232;17.110;2024-02-26T01:29:20;15.40;;;11.20;;
15132;SDS011;7667;51.232;17.110;2024-02-26T01:31:47;14.37;;;11.50;;
15132;SDS011;7667;51.232;17.110;2024-02-26T01:34:15;17.07;;;11.17;;
15132;SDS011;7667;51.232;17.110;2024-02-26T01:36:45;15.40;;;11.23;;
15132;SDS011;7667;51.232;17.110;2024-02-26T01:39:12;15.93;;;11.80;;
15132;SDS011;7667;51.232;17.110;2024-02-26T01:41:40;15.30;;;11.07;;
15132;SDS011;7667;51.232;17.110;2024-02-26T01:44:08;15.27;;;11.13;;
15132;SDS011;7667;51.232;17.110;2024-02-26T01:46:40;15.20;;;10.17;;
15132;SDS011;7667;51.232;17.110;2024-02-26T01:49:08;15.10;;;10.13;;
15132;SDS011;7667;51.232;17.110;2024-02-26T01:51:40;13.67;;;9.93;;
15132;SDS011;7667;51.232;17.110;2024-02-26T01:54:10;13.83;;;9.53;;
15132;SDS011;7667;51.232;17.110;2024-02-26T01:56:38;14.50;;;8.83;;
15132;SDS011;7667;51.232;17.110;2024-02-26T01:59:07;12.37;;;8.63;;
15132;SDS011;7667;51.232;17.110;2024-02-26T02:01:35;13.23;;;8.23;;
15132;SDS011;7667;51.232;17.110;2024-02-26T02:04:04;13.40;;;9.00;;
15132;SDS011;7667;51.232;17.110;2024-02-26T02:06:32;11.17;;;8.70;;
15132;SDS011;7667;51.232;17.110;2024-02-26T02:09:00;14.67;;;8.93;;
15132;SDS011;7667;51.232;17.110;2024-02-26T02:11:33;13.67;;;10.17;;
15132;SDS011;7667;51.232;17.110;2024-02-26T02:14:01;14.80;;;10.83;;
15132;SDS011;7667;51.232;17.110;2024-02-26T02:16:29;15.67;;;10.93;;
15132;SDS011;7667;51.232;17.110;2024-02-26T02:18:57;12.00;;;9.47;;
15132;SDS011;7667;51.232;17.110;2024-02-26T02:21:26;12.43;;;8.63;;
15132;SDS011;7667;51.232;17.110;2024-02-26T02:23:53;12.87;;;8.60;;
15132;SDS011;7667;51.232;17.110;2024-02-26T02:26:21;13.03;;;9.67;;
15132;SDS011;7667;51.232;17.110;2024-02-26T02:28:49;13.77;;;10.70;;
15132;SDS011;7667;51.232;17.110;2024-02-26T02:31:17;13.03;;;9.93;;
15132;SDS011;7667;51.232;17.110;2024-02-26T02:33:44;15.40;;;9.80;;
15132;SDS011;7667;51.232;17.110;2024-02-26T02:36:12;13.27;;;9.40;;
15132;SDS011;7667;51.232;17.110;2024-02-26T02:38:48;13.93;;;9.30;;
15132;SDS011;7667;51.232;17.110;2024-02-26T02:41:17;13.43;;;9.27;;
15132;SDS011;7667;51.232;17.110;2024-02-26T02:43:45;11.77;;;8.63;;
15132;SDS011;7667;51.232;17.110;2024-02-26T02:46:13;12.63;;;8.63;;
15132;SDS011;7667;51.232;17.110;2024-02-26T02:48:41;13.10;;;8.57;;
15132;SDS011;7667;51.232;17.110;2024-02-26T02:51:10;13.93;;;8.37;;
15132;SDS011;7667;51.232;17.110;2024-02-26T02:53:38;12.77;;;9.10;;
15132;SDS011;7667;51.232;17.110;2024-02-26T02:56:05;12.67;;;8.83;;
15132;SDS011;7667;51.232;17.110;2024-02-26T02:58:33;13.90;;;8.87;;
15132;SDS011;7667;51.232;17.110;2024-02-26T03:01:01;13.83;;;9.33;;
15132;SDS011;7667;51.232;17.110;2024-02-26T03:03:29;15.50;;;8.87;;
15132;SDS011;7667;51.232;17.110;2024-02-26T03:05:56;12.87;;;8.30;;
15132;SDS011;7667;51.232;17.110;2024-02-26T03:08:24;12.03;;;9.00;;
15132;SDS011;7667;51.232;17.110;2024-02-26T03:10:52;11.80;;;8.17;;
15132;SDS011;7667;51.232;17.110;2024-02-26T03:13:20;12.37;;;9.07;;
15132;SDS011;7667;51.232;17.110;2024-02-26T03:15:48;13.33;;;9.37;;
15132;SDS011;7667;51.232;17.110;2024-02-26T03:18:15;13.67;;;9.13;;
15132;SDS011;7667;51.232;17.110;2024-02-26T03:20:43;13.63;;;9.20;;
15132;SDS011;7667;51.232;17.110;2024-02-26T03:23:11;14.63;;;9.83;;
15132;SDS011;7667;51.232;17.110;2024-02-26T03:25:42;12.33;;;9.00;;
15132;SDS011;7667;51.232;17.110;2024-02-26T03:28:13;13.37;;;9.27;;
15132;SDS011;7667;51.232;17.110;2024-02-26T03:30:40;14.10;;;9.80;;
15132;SDS011;7667;51.232;17.110;2024-02-26T03:33:08;14.67;;;9.57;;
15132;SDS011;7667;51.232;17.110;2024-02-26T03:35:36;15.37;;;9.90;;
15132;SDS011;7667;51.232;17.110;2024-02-26T03:38:03;16.37;;;9.73;;
15132;SDS011;7667;51.232;17.110;2024-02-26T03:40:31;17.10;;;11.37;;
15132;SDS011;7667;51.232;17.110;2024-02-26T03:42:59;17.70;;;11.20;;
15132;SDS011;7667;51.232;17.110;2024-02-26T03:45:27;16.10;;;10.80;;
15132;SDS011;7667;51.232;17.110;2024-02-26T03:47:54;16.17;;;10.87;;
15132;SDS011;7667;51.232;17.110;2024-02-26T03:50:22;18.63;;;12.73;;
15132;SDS011;7667;51.232;17.110;2024-02-26T03:52:50;16.90;;;12.30;;
15132;SDS011;7667;51.232;17.110;2024-02-26T03:55:18;18.57;;;12.73;;
15132;SDS011;7667;51.232;17.110;2024-02-26T03:57:51;19.77;;;11.60;;
15132;SDS011;7667;51.232;17.110;2024-02-26T04:00:19;16.10;;;10.70;;
15132;SDS011;7667;51.232;17.110;2024-02-26T04:02:49;14.83;;;11.10;;
15132;SDS011;7667;51.232;17.110;2024-02-26T04:05:16;14.57;;;10.17;;
15132;SDS011;7667;51.232;17.110;2024-02-26T04:07:44;14.67;;;10.03;;
15132;SDS011;7667;51.232;17.110;2024-02-26T04:10:12;15.23;;;11.17;;
15132;SDS011;7667;51.232;17.110;2024-02-26T04:12:40;15.10;;;11.10;;
15132;SDS011;7667;51.232;17.110;2024-02-26T04:15:09;17.03;;;11.27;;
15132;SDS011;7667;51.232;17.110;2024-02-26T04:17:37;16.40;;;11.27;;
15132;SDS011;7667;51.232;17.110;2024-02-26T04:20:06;15.50;;;11.03;;
15132;SDS011;7667;51.232;17.110;2024-02-26T04:22:34;15.33;;;11.93;;
15132;SDS011;7667;51.232;17.110;2024-02-26T04:25:01;17.10;;;12.70;;
15132;SDS011;7667;51.232;17.110;2024-02-26T04:27:29;18.20;;;12.90;;
15132;SDS011;7667;51.232;17.110;2024-02-26T04:29:57;16.30;;;13.43;;
15132;SDS011;7667;51.232;17.110;2024-02-26T04:32:25;15.07;;;12.13;;
15132;SDS011;7667;51.232;17.110;2024-02-26T04:34:52;16.93;;;11.70;;
15132;SDS011;7667;51.232;17.110;2024-02-26T04:37:20;17.13;;;13.43;;
15132;SDS011;7667;51.232;17.110;2024-02-26T04:39:47;16.07;;;12.90;;
15132;SDS011;7667;51.232;17.110;2024-02-26T04:42:16;16.80;;;12.90;;
15132;SDS011;7667;51.232;17.110;2024-02-26T04:44:44;20.13;;;13.93;;
15132;SDS011;7667;51.232;17.110;2024-02-26T04:47:12;22.27;;;14.63;;
15132;SDS011;7667;51.232;17.110;2024-02-26T04:49:40;24.80;;;15.13;;
15132;SDS011;7667;51.232;17.110;2024-02-26T04:52:08;28.90;;;18.27;;
15132;SDS011;7667;51.232;17.110;2024-02-26T04:54:36;18.93;;;13.80;;
15132;SDS011;7667;51.232;17.110;2024-02-26T04:57:04;18.37;;;13.83;;
15132;SDS011;7667;51.232;17.110;2024-02-26T04:59:31;18.50;;;13.23;;
15132;SDS011;7667;51.232;17.110;2024-02-26T05:01:59;18.43;;;14.47;;
15132;SDS011;7667;51.232;17.110;2024-02-26T05:04:27;23.47;;;16.57;;
15132;SDS011;7667;51.232;17.110;2024-02-26T05:06:55;24.27;;;16.57;;
15132;SDS011;7667;51.232;17.110;2024-02-26T05:09:23;23.57;;;18.03;;
15132;SDS011;7667;51.232;17.110;2024-02-26T05:11:51;22.93;;;16.93;;
15132;SDS011;7667;51.232;17.110;2024-02-26T05:14:18;23.77;;;17.50;;
15132;SDS011;7667;51.232;17.110;2024-02-26T05:16:46;27.03;;;17.73;;
15132;SDS011;7667;51.232;17.110;2024-02-26T05:19:14;21.30;;;15.50;;
15132;SDS011;7667;51.232;17.110;2024-02-26T05:21:42;23.07;;;16.60;;
15132;SDS011;7667;51.232;17.110;2024-02-26T05:24:10;31.30;;;20.93;;
15132;SDS011;7667;51.232;17.110;2024-02-26T05:26:38;33.60;;;22.80;;
15132;SDS011;7667;51.232;17.110;2024-02-26T05:29:06;26.93;;;19.90;;
15132;SDS011;7667;51.232;17.110;2024-02-26T05:31:33;37.23;;;24.67;;
15132;SDS011;7667;51.232;17.110;2024-02-26T05:34:01;48.13;;;31.57;;
15132;SDS011;7667;51.232;17.110;2024-02-26T05:36:29;39.07;;;27.87;;
15132;SDS011;7667;51.232;17.110;2024-02-26T05:39:00;51.47;;;35.30;;
15132;SDS011;7667;51.232;17.110;2024-02-26T05:41:28;31.73;;;22.30;;
15132;SDS011;7667;51.232;17.110;2024-02-26T05:43:56;31.00;;;22.47;;
15132;SDS011;7667;51.232;17.110;2024-02-26T05:46:23;37.40;;;26.37;;
15132;SDS011;7667;51.232;17.110;2024-02-26T05:48:52;53.40;;;36.03;;
15132;SDS011;7667;51.232;17.110;2024-02-26T05:51:20;75.23;;;45.27;;
15132;SDS011;7667;51.232;17.110;2024-02-26T05:53:48;62.87;;;41.00;;
15132;SDS011;7667;51.232;17.110;2024-02-26T05:56:21;51.47;;;33.87;;
15132;SDS011;7667;51.232;17.110;2024-02-26T05:58:49;38.37;;;25.73;;
15132;SDS011;7667;51.232;17.110;2024-02-26T06:01:19;35.37;;;24.53;;
15132;SDS011;7667;51.232;17.110;2024-02-26T06:03:47;26.67;;;18.50;;
15132;SDS011;7667;51.232;17.110;2024-02-26T06:06:14;29.07;;;19.83;;
15132;SDS011;7667;51.232;17.110;2024-02-26T06:08:43;32.53;;;20.43;;
15132;SDS011;7667;51.232;17.110;2024-02-26T06:11:10;37.63;;;24.17;;
15132;SDS011;7667;51.232;17.110;2024-02-26T06:13:38;36.73;;;22.90;;
15132;SDS011;7667;51.232;17.110;2024-02-26T06:16:07;30.47;;;18.73;;
15132;SDS011;7667;51.232;17.110;2024-02-26T06:18:35;21.67;;;15.43;;
15132;SDS011;7667;51.232;17.110;2024-02-26T06:21:03;24.33;;;15.50;;
15132;SDS011;7667;51.232;17.110;2024-02-26T06:23:31;22.83;;;16.23;;
15132;SDS011;7667;51.232;17.110;2024-02-26T06:25:58;29.63;;;18.50;;
15132;SDS011;7667;51.232;17.110;2024-02-26T06:28:26;24.43;;;17.40;;
15132;SDS011;7667;51.232;17.110;2024-02-26T06:30:57;25.63;;;16.57;;
15132;SDS011;7667;51.232;17.110;2024-02-26T06:33:24;23.03;;;16.67;;
15132;SDS011;7667;51.232;17.110;2024-02-26T06:35:52;24.57;;;17.20;;
15132;SDS011;7667;51.232;17.110;2024-02-26T06:38:20;21.57;;;15.23;;
15132;SDS011;7667;51.232;17.110;2024-02-26T06:40:47;20.80;;;15.67;;
15132;SDS011;7667;51.232;17.110;2024-02-26T06:43:15;20.13;;;15.13;;
15132;SDS011;7667;51.232;17.110;2024-02-26T06:45:42;21.80;;;15.27;;
15132;SDS011;7667;51.232;17.110;2024-02-26T06:48:10;20.13;;;15.60;;
15132;SDS011;7667;51.232;17.110;2024-02-26T06:50:38;18.17;;;14.13;;
15132;SDS011;7667;51.232;17.110;2024-02-26T06:53:06;19.37;;;13.20;;
15132;SDS011;7667;51.232;17.110;2024-02-26T06:55:34;19.53;;;14.60;;
15132;SDS011;7667;51.232;17.110;2024-02-26T06:58:01;18.73;;;14.33;;
15132;SDS011;7667;51.232;17.110;2024-02-26T07:00:29;21.73;;;14.87;;
15132;SDS011;7667;51.232;17.110;2024-02-26T07:02:57;19.00;;;15.13;;
15132;SDS011;7667;51.232;17.110;2024-02-26T07:05:25;35.13;;;27.30;;
15132;SDS011;7667;51.232;17.110;2024-02-26T07:07:54;60.77;;;45.30;;
15132;SDS011;7667;51.232;17.110;2024-02-26T07:10:21;34.93;;;26.83;;
15132;SDS011;7667;51.232;17.110;2024-02-26T07:12:49;21.93;;;17.07;;
15132;SDS011;7667;51.232;17.110;2024-02-26T07:15:17;20.23;;;14.90;;
15132;SDS011;7667;51.232;17.110;2024-02-26T07:17:45;19.13;;;14.13;;
15132;SDS011;7667;51.232;17.110;2024-02-26T07:20:14;19.77;;;14.40;;
15132;SDS011;7667;51.232;17.110;2024-02-26T07:22:43;19.40;;;13.73;;
15132;SDS011;7667;51.232;17.110;2024-02-26T07:25:11;17.87;;;13.80;;
15132;SDS011;7667;51.232;17.110;2024-02-26T07:27:40;18.43;;;13.93;;
15132;SDS011;7667;51.232;17.110;2024-02-26T07:30:08;20.03;;;13.67;;
15132;SDS011;7667;51.232;17.110;2024-02-26T07:32:37;17.90;;;13.87;;
15132;SDS011;7667;51.232;17.110;2024-02-26T07:35:05;17.47;;;13.43;;
15132;SDS011;7667;51.232;17.110;2024-02-26T07:37:33;16.67;;;13.20;;
15132;SDS011;7667;51.232;17.110;2024-02-26T07:40:01;18.10;;;13.33;;
15132;SDS011;7667;51.232;17.110;2024-02-26T07:42:29;18.47;;;14.00;;
15132;SDS011;7667;51.232;17.110;2024-02-26T07:44:57;20.03;;;14.83;;
15132;SDS011;7667;51.232;17.110;2024-02-26T07:47:25;19.97;;;15.07;;
15132;SDS011;7667;51.232;17.110;2024-02-26T07:49:53;19.23;;;13.87;;
15132;SDS011;7667;51.232;17.110;2024-02-26T07:52:21;25.17;;;17.63;;
15132;SDS011;7667;51.232;17.110;2024-02-26T07:54:48;20.40;;;15.23;;
15132;SDS011;7667;51.232;17.110;2024-02-26T07:57:16;16.87;;;13.33;;
15132;SDS011;7667;51.232;17.110;2024-02-26T07:59:44;18.30;;;13.80;;
15132;SDS011;7667;51.232;17.110;2024-02-26T08:02:17;18.13;;;13.20;;
15132;SDS011;7667;51.232;17.110;2024-02-26T08:04:44;17.53;;;12.97;;
15132;SDS011;7667;51.232;17.110;2024-02-26T08:07:12;20.37;;;13.50;;
15132;SDS011;7667;51.232;17.110;2024-02-26T08:09:40;15.83;;;12.83;;
15132;SDS011;7667;51.232;17.110;2024-02-26T08:12:08;16.90;;;12.80;;
15132;SDS011;7667;51.232;17.110;2024-02-26T08:14:35;17.60;;;13.73;;
15132;SDS011;7667;51.232;17.110;2024-02-26T08:17:03;17.87;;;14.47;;
15132;SDS011;7667;51.232;17.110;2024-02-26T08:19:31;16.77;;;12.87;;
15132;SDS011;7667;51.232;17.110;2024-02-26T08:21:59;16.30;;;12.30;;
15132;SDS011;7667;51.232;17.110;2024-02-26T08:24:30;15.97;;;12.17;;
15132;SDS011;7667;51.232;17.110;2024-02-26T08:26:58;16.20;;;11.27;;
15132;SDS011;7667;51.232;17.110;2024-02-26T08:29:26;16.27;;;11.57;;
15132;SDS011;7667;51.232;17.110;2024-02-26T08:31:53;13.53;;;10.53;;
15132;SDS011;7667;51.232;17.110;2024-02-26T08:34:21;12.17;;;9.77;;
15132;SDS011;7667;51.232;17.110;2024-02-26T08:36:49;12.13;;;9.60;;
15132;SDS011;7667;51.232;17.110;2024-02-26T08:39:18;12.83;;;9.10;;
15132;SDS011;7667;51.232;17.110;2024-02-26T08:41:46;13.83;;;9.30;;
15132;SDS011;7667;51.232;17.110;2024-02-26T08:44:13;10.97;;;7.93;;
15132;SDS011;7667;51.232;17.110;2024-02-26T08:46:41;11.33;;;7.63;;
15132;SDS011;7667;51.232;17.110;2024-02-26T08:49:09;11.53;;;7.73;;
15132;SDS011;7667;51.232;17.110;2024-02-26T08:51:41;9.77;;;6.93;;
15132;SDS011;7667;51.232;17.110;2024-02-26T08:54:10;11.20;;;6.87;;
15132;SDS011;7667;51.232;17.110;2024-02-26T08:56:38;10.63;;;6.73;;
15132;SDS011;7667;51.232;17.110;2024-02-26T08:59:06;8.70;;;6.03;;
15132;SDS011;7667;51.232;17.110;2024-02-26T09:01:34;8.07;;;6.27;;
15132;SDS011;7667;51.232;17.110;2024-02-26T09:04:01;8.63;;;5.70;;
15132;SDS011;7667;51.232;17.110;2024-02-26T09:06:30;6.47;;;5.53;;
15132;SDS011;7667;51.232;17.110;2024-02-26T09:08:58;6.87;;;4.93;;
15132;SDS011;7667;51.232;17.110;2024-02-26T09:11:27;7.43;;;5.23;;
15132;SDS011;7667;51.232;17.110;2024-02-26T09:13:55;6.00;;;4.60;;
15132;SDS011;7667;51.232;17.110;2024-02-26T09:16:24;7.43;;;5.17;;
15132;SDS011;7667;51.232;17.110;2024-02-26T09:18:53;11.57;;;6.57;;
15132;SDS011;7667;51.232;17.110;2024-02-26T09:21:21;6.83;;;4.90;;
15132;SDS011;7667;51.232;17.110;2024-02-26T09:23:52;7.00;;;4.10;;
15132;SDS011;7667;51.232;17.110;2024-02-26T09:26:19;5.47;;;3.83;;
15132;SDS011;7667;51.232;17.110;2024-02-26T09:28:47;6.20;;;4.10;;
15132;SDS011;7667;51.232;17.110;2024-02-26T09:31:17;5.37;;;3.10;;
15132;SDS011;7667;51.232;17.110;2024-02-26T09:33:46;4.60;;;3.43;;
15132;SDS011;7667;51.232;17.110;2024-02-26T09:36:14;4.77;;;2.27;;
15132;SDS011;7667;51.232;17.110;2024-02-26T09:38:42;3.67;;;2.20;;
15132;SDS011;7667;51.232;17.110;2024-02-26T09:41:27;4.77;;;2.40;;
15132;SDS011;7667;51.232;17.110;2024-02-26T09:43:58;4.37;;;2.57;;
15132;SDS011;7667;51.232;17.110;2024-02-26T09:46:29;3.73;;;2.30;;
15132;SDS011;7667;51.232;17.110;2024-02-26T09:48:57;3.40;;;2.37;;
15132;SDS011;7667;51.232;17.110;2024-02-26T09:51:25;4.00;;;2.13;;
15132;SDS011;7667;51.232;17.110;2024-02-26T09:53:55;2.83;;;2.03;;
15132;SDS011;7667;51.232;17.110;2024-02-26T09:56:30;2.33;;;1.90;;
15132;SDS011;7667;51.232;17.110;2024-02-26T09:59:03;3.73;;;2.47;;
15132;SDS011;7667;51.232;17.110;2024-02-26T10:01:37;3.90;;;2.03;;
15132;SDS011;7667;51.232;17.110;2024-02-26T10:04:09;2.53;;;1.40;;
15132;SDS011;7667;51.232;17.110;2024-02-26T10:06:38;2.83;;;2.03;;
15132;SDS011;7667;51.232;17.110;2024-02-26T10:09:07;4.03;;;1.77;;
15132;SDS011;7667;51.232;17.110;2024-02-26T10:11:36;1.87;;;1.40;;
15132;SDS011;7667;51.232;17.110;2024-02-26T10:14:10;3.33;;;1.80;;
15132;SDS011;7667;51.232;17.110;2024-02-26T10:16:38;3.90;;;2.00;;
15132;SDS011;7667;51.232;17.110;2024-02-26T10:19:06;2.33;;;1.90;;
15132;SDS011;7667;51.232;17.110;2024-02-26T10:21:34;4.00;;;2.07;;
15132;SDS011;7667;51.232;17.110;2024-02-26T10:24:03;1.60;;;1.40;;
15132;SDS011;7667;51.232;17.110;2024-02-26T10:26:31;1.80;;;1.50;;
15132;SDS011;7667;51.232;17.110;2024-02-26T10:29:01;3.07;;;2.00;;
15132;SDS011;7667;51.232;17.110;2024-02-26T10:31:30;4.80;;;2.00;;
15132;SDS011;7667;51.232;17.110;2024-02-26T10:33:58;2.70;;;1.90;;
15132;SDS011;7667;51.232;17.110;2024-02-26T10:36:33;2.20;;;1.60;;
15132;SDS011;7667;51.232;17.110;2024-02-26T10:39:14;2.10;;;1.50;;
15132;SDS011;7667;51.232;17.110;2024-02-26T10:41:43;3.10;;;1.80;;
15132;SDS011;7667;51.232;17.110;2024-02-26T10:44:14;4.07;;;3.10;;
15132;SDS011;7667;51.232;17.110;2024-02-26T10:46:46;3.03;;;1.63;;
15132;SDS011;7667;51.232;17.110;2024-02-26T10:49:18;2.70;;;1.90;;
15132;SDS011;7667;51.232;17.110;2024-02-26T10:51:51;3.43;;;1.73;;
15132;SDS011;7667;51.232;17.110;2024-02-26T10:54:28;2.40;;;1.80;;
15132;SDS011;7667;51.232;17.110;2024-02-26T10:56:57;2.43;;;1.57;;
15132;SDS011;7667;51.232;17.110;2024-02-26T10:59:26;7.07;;;4.43;;
15132;SDS011;7667;51.232;17.110;2024-02-26T11:01:54;8.70;;;5.07;;
15132;SDS011;7667;51.232;17.110;2024-02-26T11:04:23;5.07;;;2.50;;
15132;SDS011;7667;51.232;17.110;2024-02-26T11:06:54;3.93;;;2.47;;
15132;SDS011;7667;51.232;17.110;2024-02-26T11:09:26;3.60;;;2.60;;
15132;SDS011;7667;51.232;17.110;2024-02-26T11:11:56;4.00;;;2.70;;
15132;SDS011;7667;51.232;17.110;2024-02-26T11:14:26;3.67;;;2.20;;
15132;SDS011;7667;51.232;17.110;2024-02-26T11:16:56;3.13;;;2.23;;
15132;SDS011;7667;51.232;17.110;2024-02-26T11:19:25;3.97;;;2.40;;
15132;SDS011;7667;51.232;17.110;2024-02-26T11:21:55;3.60;;;2.20;;
15132;SDS011;7667;51.232;17.110;2024-02-26T11:24:25;6.60;;;2.43;;
15132;SDS011;7667;51.232;17.110;2024-02-26T11:26:54;7.90;;;2.90;;
15132;SDS011;7667;51.232;17.110;2024-02-26T11:29:33;3.37;;;2.43;;
15132;SDS011;7667;51.232;17.110;2024-02-26T11:32:09;4.83;;;3.00;;
15132;SDS011;7667;51.232;17.110;2024-02-26T11:34:38;4.83;;;2.63;;
15132;SDS011;7667;51.232;17.110;2024-02-26T11:37:15;7.67;;;3.80;;
15132;SDS011;7667;51.232;17.110;2024-02-26T11:39:45;6.27;;;3.50;;
15132;SDS011;7667;51.232;17.110;2024-02-26T11:42:16;4.77;;;2.77;;
15132;SDS011;7667;51.232;17.110;2024-02-26T11:44:44;11.03;;;5.80;;
15132;SDS011;7667;51.232;17.110;2024-02-26T11:47:19;5.20;;;3.03;;
15132;SDS011;7667;51.232;17.110;2024-02-26T11:49:48;5.53;;;2.83;;
15132;SDS011;7667;51.232;17.110;2024-02-26T11:52:17;6.87;;;4.00;;
15132;SDS011;7667;51.232;17.110;2024-02-26T12:02:44;8.03;;;3.27;;
15132;SDS011;7667;51.232;17.110;2024-02-26T12:05:21;2.60;;;1.90;;
15132;SDS011;7667;51.232;17.110;2024-02-26T12:08:02;5.90;;;3.50;;
15132;SDS011;7667;51.232;17.110;2024-02-26T12:10:36;2.60;;;1.40;;
15132;SDS011;7667;51.232;17.110;2024-02-26T12:13:07;3.20;;;1.90;;
15132;SDS011;7667;51.232;17.110;2024-02-26T12:15:54;4.93;;;1.90;;
15132;SDS011;7667;51.232;17.110;2024-02-26T12:18:25;3.63;;;2.10;;
15132;SDS011;7667;51.232;17.110;2024-02-26T12:20:59;4.70;;;1.70;;
15132;SDS011;7667;51.232;17.110;2024-02-26T12:23:29;3.43;;;1.80;;
15132;SDS011;7667;51.232;17.110;2024-02-26T12:26:00;1.80;;;1.63;;
15132;SDS011;7667;51.232;17.110;2024-02-26T12:28:34;4.43;;;2.40;;
15132;SDS011;7667;51.232;17.110;2024-02-26T12:31:01;2.00;;;1.40;;
15132;SDS011;7667;51.232;17.110;2024-02-26T12:33:29;6.90;;;3.10;;
15132;SDS011;7667;51.232;17.110;2024-02-26T12:35:58;3.13;;;1.47;;
15132;SDS011;7667;51.232;17.110;2024-02-26T12:38:26;2.87;;;1.70;;
15132;SDS011;7667;51.232;17.110;2024-02-26T12:40:54;4.33;;;2.00;;
15132;SDS011;7667;51.232;17.110;2024-02-26T12:43:22;3.10;;;2.20;;
15132;SDS011;7667;51.232;17.110;2024-02-26T12:45:49;1.77;;;1.20;;
15132;SDS011;7667;51.232;17.110;2024-02-26T12:48:17;3.03;;;1.70;;
15132;SDS011;7667;51.232;17.110;2024-02-26T12:50:47;4.00;;;1.50;;
15132;SDS011;7667;51.232;17.110;2024-02-26T12:53:15;1.80;;;1.50;;
15132;SDS011;7667;51.232;17.110;2024-02-26T12:55:43;7.53;;;3.07;;
15132;SDS011;7667;51.232;17.110;2024-02-26T12:58:11;7.50;;;3.63;;
15132;SDS011;7667;51.232;17.110;2024-02-26T13:00:40;5.73;;;2.77;;
15132;SDS011;7667;51.232;17.110;2024-02-26T13:03:09;3.23;;;2.07;;
15132;SDS011;7667;51.232;17.110;2024-02-26T13:05:37;8.87;;;3.87;;
15132;SDS011;7667;51.232;17.110;2024-02-26T13:08:05;4.13;;;1.93;;
15132;SDS011;7667;51.232;17.110;2024-02-26T13:10:36;3.13;;;2.17;;
15132;SDS011;7667;51.232;17.110;2024-02-26T13:13:04;2.53;;;1.77;;
15132;SDS011;7667;51.232;17.110;2024-02-26T13:15:32;3.07;;;1.20;;
15132;SDS011;7667;51.232;17.110;2024-02-26T13:18:00;1.70;;;1.20;;
15132;SDS011;7667;51.232;17.110;2024-02-26T13:20:41;2.13;;;1.37;;
15132;SDS011;7667;51.232;17.110;2024-02-26T13:23:12;1.30;;;1.20;;
15132;SDS011;7667;51.232;17.110;2024-02-26T13:25:41;2.20;;;1.43;;
15132;SDS011;7667;51.232;17.110;2024-02-26T13:30:52;2.67;;;1.70;;
15132;SDS011;7667;51.232;17.110;2024-02-26T13:33:25;2.43;;;2.00;;
15132;SDS011;7667;51.232;17.110;2024-02-26T13:35:56;3.03;;;2.37;;
15132;SDS011;7667;51.232;17.110;2024-02-26T13:38:24;3.63;;;1.80;;
15132;SDS011;7667;51.232;17.110;2024-02-26T13:40:53;2.77;;;1.70;;
15132;SDS011;7667;51.232;17.110;2024-02-26T13:43:21;6.07;;;3.00;;
15132;SDS011;7667;51.232;17.110;2024-02-26T13:45:49;3.80;;;1.90;;
15132;SDS011;7667;51.232;17.110;2024-02-26T13:48:17;3.27;;;1.57;;
15132;SDS011;7667;51.232;17.110;2024-02-26T13:50:45;2.53;;;1.70;;
15132;SDS011;7667;51.232;17.110;2024-02-26T13:53:13;2.67;;;2.00;;
15132;SDS011;7667;51.232;17.110;2024-02-26T13:55:41;4.70;;;1.73;;
15132;SDS011;7667;51.232;17.110;2024-02-26T13:58:14;3.70;;;2.20;;
15132;SDS011;7667;51.232;17.110;2024-02-26T14:00:42;4.43;;;2.10;;
15132;SDS011;7667;51.232;17.110;2024-02-26T14:03:10;3.40;;;1.40;;
15132;SDS011;7667;51.232;17.110;2024-02-26T14:05:38;3.33;;;2.10;;
15132;SDS011;7667;51.232;17.110;2024-02-26T14:08:10;4.00;;;2.30;;
15132;SDS011;7667;51.232;17.110;2024-02-26T14:10:38;4.43;;;2.53;;
15132;SDS011;7667;51.232;17.110;2024-02-26T14:13:06;3.53;;;2.10;;
15132;SDS011;7667;51.232;17.110;2024-02-26T14:15:34;4.83;;;3.07;;
15132;SDS011;7667;51.232;17.110;2024-02-26T14:18:02;3.60;;;2.43;;
15132;SDS011;7667;51.232;17.110;2024-02-26T14:20:31;4.30;;;1.93;;
15132;SDS011;7667;51.232;17.110;2024-02-26T14:22:59;7.43;;;3.80;;
15132;SDS011;7667;51.232;17.110;2024-02-26T14:25:27;5.57;;;2.67;;
15132;SDS011;7667;51.232;17.110;2024-02-26T14:27:57;7.37;;;2.73;;
15132;SDS011;7667;51.232;17.110;2024-02-26T14:30:26;4.27;;;2.93;;
15132;SDS011;7667;51.232;17.110;2024-02-26T14:32:54;13.73;;;5.33;;
15132;SDS011;7667;51.232;17.110;2024-02-26T14:35:22;21.20;;;8.23;;
15132;SDS011;7667;51.232;17.110;2024-02-26T14:37:50;3.33;;;2.10;;
15132;SDS011;7667;51.232;17.110;2024-02-26T14:40:18;3.90;;;2.73;;
15132;SDS011;7667;51.232;17.110;2024-02-26T14:42:46;5.57;;;3.17;;
15132;SDS011;7667;51.232;17.110;2024-02-26T14:45:14;5.00;;;3.37;;
15132;SDS011;7667;51.232;17.110;2024-02-26T14:47:43;7.33;;;3.83;;
15132;SDS011;7667;51.232;17.110;2024-02-26T14:50:11;2.93;;;2.37;;
15132;SDS011;7667;51.232;17.110;2024-02-26T14:52:39;9.13;;;4.40;;